Time;durP1;ratioP1;P1;durP2;ratioP2;P2;SDS_P1;SDS_P2;PMS_P1;PMS_P2;Temp;Humidity;BMP_temperature;BMP_pressure;BME280_temperature;BME280_humidity;BME280_pressure;Samples;Min_cycle;Max_cycle;Signal;HPM_P1;HPM_P2
2022/03/14 00:01:19;;;;;;;8.60;5.57;;;;;;;3.55;37.32;99028.41;5162597;27;43277;-72
2022/03/14 00:03:50;;;;;;;9.17;5.17;;;;;;;3.53;37.82;99031.09;5117932;27;39081;-74
2022/03/14 00:06:21;;;;;;;7.60;4.97;;;;;;;3.51;37.88;99025.03;5119796;27;20710;-73
2022/03/14 00:08:57;;;;;;;7.60;5.10;;;;;;;3.51;39.45;99022.41;5151578;27;42605;-74
2022/03/14 00:11:26;;;;;;;7.27;4.97;;;;;;;3.51;39.69;99022.41;5152167;27;41559;-72
2022/03/14 00:14:01;;;;;;;6.87;5.37;;;;;;;3.53;39.14;99032.84;5134075;27;41187;-73
2022/03/14 00:16:37;;;;;;;9.13;5.20;;;;;;;3.53;38.37;99036.31;5132320;27;41788;-74
2022/03/14 00:19:05;;;;;;;8.40;5.33;;;;;;;3.52;38.10;99044.22;5135231;27;42699;-74
2022/03/14 00:21:41;;;;;;;8.10;4.97;;;;;;;3.51;38.26;99037.25;5149754;27;43329;-72
2022/03/14 00:24:11;;;;;;;9.43;5.63;;;;;;;3.47;39.11;99033.03;5135160;27;39728;-74
2022/03/14 00:26:39;;;;;;;12.20;6.20;;;;;;;3.49;39.15;99033.84;5153674;27;41879;-73
2022/03/14 00:29:08;;;;;;;8.17;5.53;;;;;;;3.51;39.15;99042.50;5134879;27;41725;-73
2022/03/14 00:31:37;;;;;;;8.50;5.23;;;;;;;3.50;38.27;99048.63;5135286;27;43019;-74
2022/03/14 00:34:12;;;;;;;7.50;5.07;;;;;;;3.50;37.84;99051.25;5134966;27;38449;-72
2022/03/14 00:36:44;;;;;;;10.27;5.40;;;;;;;3.50;37.79;99056.50;5117469;27;42031;-75
2022/03/14 00:39:12;;;;;;;7.80;5.60;;;;;;;3.49;38.27;99058.25;5153397;27;42743;-74
2022/03/14 00:41:39;;;;;;;7.83;4.73;;;;;;;3.49;38.04;99065.25;5153539;27;42214;-75
2022/03/14 00:44:07;;;;;;;8.57;5.60;;;;;;;3.47;39.10;99064.44;5117842;27;38987;-75
2022/03/14 00:46:41;;;;;;;10.30;6.03;;;;;;;3.48;38.64;99068.78;5117576;27;41363;-74
2022/03/14 00:49:09;;;;;;;9.47;5.20;;;;;;;3.48;38.66;99064.41;5135102;27;43586;-75
2022/03/14 00:51:45;;;;;;;8.83;4.67;;;;;;;3.50;38.34;99066.97;5150397;27;42354;-75
2022/03/14 00:54:12;;;;;;;5.70;4.60;;;;;;;3.50;38.36;99067.81;5174026;27;38867;-75
2022/03/14 00:56:39;;;;;;;6.87;4.80;;;;;;;3.50;38.27;99061.72;5138125;27;41694;-75
2022/03/14 00:59:07;;;;;;;8.70;5.87;;;;;;;3.51;37.94;99084.41;5155715;27;42460;-73
2022/03/14 01:01:40;;;;;;;6.47;4.03;;;;;;;3.47;37.74;99077.53;5139510;27;42020;-72
2022/03/14 01:04:08;;;;;;;6.80;5.07;;;;;;;3.49;37.49;99094.91;5134111;27;39869;-75
2022/03/14 01:06:36;;;;;;;7.07;4.20;;;;;;;3.49;37.44;99100.16;5134971;27;41924;-75
2022/03/14 01:09:05;;;;;;;4.93;3.80;;;;;;;3.51;37.48;99107.97;5117341;27;42733;-74
2022/03/14 01:11:33;;;;;;;9.50;4.40;;;;;;;3.50;37.72;99108.84;5117652;27;41569;-75
2022/03/14 01:14:00;;;;;;;8.40;5.67;;;;;;;3.49;37.97;99112.38;5117524;27;39081;-73
2022/03/14 01:16:27;;;;;;;6.63;4.47;;;;;;;3.46;38.07;99117.72;5148340;27;41581;-74
2022/03/14 01:18:55;;;;;;;7.27;4.80;;;;;;;3.43;38.13;99112.56;5169014;27;42626;-72
2022/03/14 01:21:23;;;;;;;9.13;5.80;;;;;;;3.40;38.22;99120.50;5168637;27;43290;-76
2022/03/14 01:23:51;;;;;;;6.97;4.07;;;;;;;3.38;38.26;99120.56;5152513;27;40144;-74
2022/03/14 01:26:20;;;;;;;7.13;4.47;;;;;;;3.36;39.02;99111.03;5117093;27;40695;-73
2022/03/14 01:28:50;;;;;;;6.87;5.33;;;;;;;3.35;40.18;99117.16;5134353;27;41745;-72
2022/03/14 01:31:18;;;;;;;7.30;4.80;;;;;;;3.31;39.62;99124.25;5152964;27;43194;-74
2022/03/14 01:33:46;;;;;;;10.70;5.00;;;;;;;3.32;39.44;99125.13;5134232;27;39962;-75
2022/03/14 01:36:14;;;;;;;9.17;5.23;;;;;;;3.30;40.39;99117.31;5169105;27;41737;-75
2022/03/14 01:38:52;;;;;;;9.70;5.73;;;;;;;3.33;40.46;99127.69;5152902;27;42695;-72
2022/03/14 01:41:22;;;;;;;9.03;5.73;;;;;;;3.34;39.85;99123.31;5152672;27;42241;-75
2022/03/14 01:43:50;;;;;;;7.43;4.93;;;;;;;3.37;39.98;99123.22;5152652;27;40013;-75
2022/03/14 01:46:18;;;;;;;7.13;4.93;;;;;;;3.40;39.64;99133.59;5152712;27;42663;-71
2022/03/14 01:48:46;;;;;;;9.87;5.20;;;;;;;3.40;39.64;99136.22;5116429;27;41713;-72
2022/03/14 01:51:14;;;;;;;6.93;4.07;;;;;;;3.42;39.46;99139.66;5133186;27;42084;-74
2022/03/14 01:53:43;;;;;;;5.07;3.90;;;;;;;3.40;39.65;99144.94;5152367;27;40892;-74
2022/03/14 01:56:12;;;;;;;8.27;5.67;;;;;;;3.38;39.82;99144.13;5133898;27;41596;-73
2022/03/14 01:58:42;;;;;;;5.80;4.60;;;;;;;3.36;40.93;99143.28;5133763;27;42094;-74
2022/03/14 02:01:12;;;;;;;9.00;5.53;;;;;;;3.32;42.11;99139.06;5141671;27;41182;-71
2022/03/14 02:03:40;;;;;;;8.80;5.23;;;;;;;3.29;42.02;99146.16;5137274;27;40768;-73
2022/03/14 02:06:08;;;;;;;8.60;5.77;;;;;;;3.24;41.31;99149.75;5154019;27;43494;-76
2022/03/14 02:08:35;;;;;;;8.77;5.40;;;;;;;3.19;40.99;99166.50;5172485;27;43719;-75
2022/03/14 02:11:03;;;;;;;8.47;5.47;;;;;;;3.11;40.68;99158.84;5155124;27;43272;-74
2022/03/14 02:13:31;;;;;;;9.03;4.80;;;;;;;3.11;40.55;99163.19;5155169;27;40132;-72
2022/03/14 02:16:00;;;;;;;7.67;4.67;;;;;;;3.08;41.00;99169.41;5152680;27;42619;-74
2022/03/14 02:18:27;;;;;;;8.67;5.90;;;;;;;3.06;41.30;99160.72;5134110;27;42810;-75
2022/03/14 02:20:56;;;;;;;7.43;4.97;;;;;;;3.06;40.87;99163.34;5152442;27;42121;-72
2022/03/14 02:23:24;;;;;;;7.17;4.73;;;;;;;3.05;40.71;99164.25;5133218;27;41751;-74
2022/03/14 02:25:55;;;;;;;7.37;4.77;;;;;;;3.07;40.27;99182.53;5148139;27;41703;-75
2022/03/14 02:28:26;;;;;;;6.20;4.57;;;;;;;3.07;40.13;99183.38;5113423;27;43797;-74
2022/03/14 02:30:54;;;;;;;7.90;4.40;;;;;;;3.10;40.32;99182.41;5133760;27;43208;-71
2022/03/14 02:33:22;;;;;;;7.03;4.37;;;;;;;3.10;39.99;99198.13;5116726;27;39915;-72
2022/03/14 02:35:50;;;;;;;10.27;6.10;;;;;;;3.09;41.64;99205.09;5135053;27;41819;-72
2022/03/14 02:38:19;;;;;;;9.33;5.87;;;;;;;3.09;42.75;99209.50;5116323;27;42725;-74
2022/03/14 02:40:48;;;;;;;9.57;6.37;;;;;;;3.09;42.22;99218.19;5099239;27;41320;-75
2022/03/14 02:43:16;;;;;;;8.83;5.93;;;;;;;3.12;42.72;99218.13;5134411;27;41145;-74
2022/03/14 02:45:47;;;;;;;10.73;5.83;;;;;;;3.13;42.46;99229.44;5135061;27;42808;-75
2022/03/14 02:48:18;;;;;;;7.50;5.83;;;;;;;3.18;41.96;99254.59;5133911;27;42742;-75
2022/03/14 02:50:49;;;;;;;6.63;4.80;;;;;;;3.19;41.86;99243.25;5134661;27;43053;-74
2022/03/14 02:53:18;;;;;;;7.70;5.13;;;;;;;3.29;41.65;99253.44;5115739;27;40121;-72
2022/03/14 02:55:45;;;;;;;10.33;6.30;;;;;;;3.29;41.53;99262.16;5134377;27;41449;-72
2022/03/14 02:58:13;;;;;;;8.27;5.50;;;;;;;3.36;42.86;99263.72;5157236;27;43796;-72
2022/03/14 03:00:40;;;;;;;7.97;6.53;;;;;;;3.41;43.94;99271.44;5140142;27;40902;-73
2022/03/14 03:03:09;;;;;;;8.80;5.93;;;;;;;3.44;44.55;99268.75;5153528;27;39985;-73
2022/03/14 03:05:43;;;;;;;9.57;5.33;;;;;;;3.49;44.19;99274.69;5155086;27;41444;-75
2022/03/14 03:08:11;;;;;;;11.67;6.40;;;;;;;3.51;44.18;99280.75;5150121;27;43695;-75
2022/03/14 03:10:41;;;;;;;6.60;5.40;;;;;;;3.52;44.65;99278.09;5136679;27;41186;-74
2022/03/14 03:13:11;;;;;;;9.43;6.07;;;;;;;3.52;45.17;99285.97;5140512;27;40816;-75
2022/03/14 03:15:38;;;;;;;9.37;5.80;;;;;;;3.52;45.04;99295.56;5139842;27;41642;-71
2022/03/14 03:18:06;;;;;;;8.80;6.43;;;;;;;3.49;45.37;99291.28;5175795;27;43740;-75
2022/03/14 03:20:34;;;;;;;7.73;5.93;;;;;;;3.47;44.87;99298.31;5191975;27;40699;-73
2022/03/14 03:23:02;;;;;;;7.93;5.77;;;;;;;3.41;45.15;99292.38;5156100;27;40940;-75
2022/03/14 03:25:29;;;;;;;9.70;5.43;;;;;;;3.43;45.25;99304.56;5157232;27;41551;-75
2022/03/14 03:27:58;;;;;;;9.73;6.03;;;;;;;3.44;45.08;99321.13;5156940;27;42886;-75
2022/03/14 03:30:26;;;;;;;11.67;6.20;;;;;;;3.37;45.17;99327.38;5139600;27;42546;-72
2022/03/14 03:32:54;;;;;;;10.97;6.47;;;;;;;3.44;44.94;99336.81;5156937;27;40797;-75
2022/03/14 03:35:21;;;;;;;9.70;5.67;;;;;;;3.45;44.77;99338.53;5157220;27;42703;-74
2022/03/14 03:37:49;;;;;;;8.87;5.90;;;;;;;3.47;44.53;99352.44;5156860;27;42546;-72
2022/03/14 03:40:16;;;;;;;9.10;6.07;;;;;;;3.50;44.94;99350.59;5175027;27;42276;-72
2022/03/14 03:42:51;;;;;;;9.50;5.70;;;;;;;3.53;45.43;99354.91;5140059;27;39078;-72
2022/03/14 03:45:20;;;;;;;11.03;6.43;;;;;;;3.56;45.48;99360.94;5157002;27;41712;-72
2022/03/14 03:47:47;;;;;;;8.43;5.90;;;;;;;3.61;46.24;99368.66;5156591;27;44294;-75
2022/03/14 03:50:16;;;;;;;9.00;5.77;;;;;;;3.66;46.20;99368.53;5165032;27;42253;-74
2022/03/14 03:52:44;;;;;;;11.63;6.10;;;;;;;3.70;45.53;99373.66;5153852;27;40096;-73
2022/03/14 03:55:11;;;;;;;10.37;6.70;;;;;;;3.75;45.80;99369.16;5154150;27;41873;-73
2022/03/14 03:57:39;;;;;;;10.27;6.77;;;;;;;3.79;45.74;99373.41;5135654;27;42859;-73
2022/03/14 04:00:12;;;;;;;12.37;5.77;;;;;;;3.84;45.23;99376.75;5135845;27;42287;-74
2022/03/14 04:02:44;;;;;;;6.63;5.40;;;;;;;3.88;46.19;99365.28;5152853;27;39043;-72
2022/03/14 04:05:13;;;;;;;12.53;6.33;;;;;;;3.89;47.25;99359.16;5154453;27;42623;-73
2022/03/14 04:07:41;;;;;;;9.80;6.40;;;;;;;3.85;47.24;99352.28;5152918;27;42906;-75
2022/03/14 04:10:11;;;;;;;9.03;5.80;;;;;;;4.03;46.54;99381.50;5152730;27;44371;-74
2022/03/14 04:12:40;;;;;;;11.67;6.37;;;;;;;4.09;45.86;99387.41;5135729;27;38344;-74
2022/03/14 04:15:10;;;;;;;8.10;5.63;;;;;;;4.15;45.28;99397.75;5152923;27;41684;-73
2022/03/14 04:17:41;;;;;;;6.97;5.47;;;;;;;4.22;44.71;99388.78;5152666;27;42608;-72
2022/03/14 04:20:12;;;;;;;7.77;4.47;;;;;;;4.30;44.69;99407.81;5138256;27;42220;-72
2022/03/14 04:22:40;;;;;;;7.33;5.07;;;;;;;4.34;44.44;99408.56;5188349;27;40807;-74
2022/03/14 04:25:11;;;;;;;9.87;5.73;;;;;;;4.40;44.34;99407.53;5155949;27;41785;-72
2022/03/14 04:27:38;;;;;;;8.53;5.60;;;;;;;4.44;44.31;99403.94;5173116;27;42697;-74
2022/03/14 04:30:07;;;;;;;9.77;5.97;;;;;;;4.49;43.95;99408.13;5175054;27;43202;-73
2022/03/14 04:32:34;;;;;;;8.50;6.10;;;;;;;4.55;45.12;99407.97;5174639;27;40139;-72
2022/03/14 04:35:02;;;;;;;10.83;5.97;;;;;;;4.56;45.16;99414.06;5174953;27;41621;-73
2022/03/14 04:37:31;;;;;;;9.17;6.60;;;;;;;4.59;45.62;99414.81;5138635;27;42178;-75
2022/03/14 04:39:58;;;;;;;11.20;7.13;;;;;;;4.62;45.27;99414.72;5138503;27;42618;-73
2022/03/14 04:42:26;;;;;;;7.80;5.60;;;;;;;4.67;44.73;99420.72;5156043;27;39718;-75
2022/03/14 04:44:54;;;;;;;8.90;5.70;;;;;;;4.70;45.40;99423.22;5155776;27;40150;-72
2022/03/14 04:47:22;;;;;;;8.47;5.50;;;;;;;4.74;44.71;99428.38;5174187;27;42665;-73
2022/03/14 04:49:49;;;;;;;10.87;5.70;;;;;;;4.78;45.33;99435.28;5174695;27;43166;-74
2022/03/14 04:52:16;;;;;;;10.43;7.40;;;;;;;4.78;45.80;99441.38;5154203;27;41216;-73
2022/03/14 04:54:46;;;;;;;9.33;6.50;;;;;;;4.80;45.05;99455.31;5156043;27;40552;-75
2022/03/14 04:57:13;;;;;;;12.47;7.13;;;;;;;4.82;44.92;99452.66;5155009;27;41973;-73
2022/03/14 04:59:41;;;;;;;10.93;6.73;;;;;;;4.85;44.76;99463.03;5155889;27;43251;-73
2022/03/14 05:02:08;;;;;;;12.30;6.10;;;;;;;4.87;44.29;99466.47;5154602;27;40128;-75
2022/03/14 05:04:37;;;;;;;11.43;6.20;;;;;;;4.90;43.98;99471.63;5151793;27;41981;-72
2022/03/14 05:07:06;;;;;;;11.97;6.20;;;;;;;4.92;43.65;99475.09;5134393;27;44502;-74
2022/03/14 05:09:33;;;;;;;8.70;5.97;;;;;;;4.92;43.89;99485.59;5134183;27;42420;-74
2022/03/14 05:12:03;;;;;;;8.77;5.13;;;;;;;4.93;43.93;99497.81;5124452;27;40620;-73
2022/03/14 05:14:31;;;;;;;7.60;5.27;;;;;;;4.91;44.04;99499.59;5134556;27;41789;-76
2022/03/14 05:16:59;;;;;;;8.80;6.37;;;;;;;4.89;44.46;99517.16;5152711;27;42656;-72
2022/03/14 05:19:26;;;;;;;8.90;5.30;;;;;;;4.86;44.27;99517.25;5133960;27;41941;-76
2022/03/14 05:21:53;;;;;;;7.77;4.97;;;;;;;4.87;44.39;99518.97;5134110;27;40928;-72
2022/03/14 05:24:21;;;;;;;7.40;4.80;;;;;;;4.87;44.36;99513.72;5134121;27;43021;-74
2022/03/14 05:26:52;;;;;;;12.60;6.20;;;;;;;4.86;44.76;99527.75;5147182;27;43747;-75
2022/03/14 05:29:21;;;;;;;10.80;5.63;;;;;;;4.84;45.20;99516.41;5161348;27;42334;-75
2022/03/14 05:31:49;;;;;;;6.73;5.50;;;;;;;4.86;45.19;99523.34;5167005;27;40543;-73
2022/03/14 05:34:16;;;;;;;9.47;6.40;;;;;;;4.77;45.16;99509.66;5156938;27;41663;-72
2022/03/14 05:36:44;;;;;;;8.47;5.33;;;;;;;4.90;44.79;99529.38;5152616;27;42870;-74
2022/03/14 05:39:12;;;;;;;6.00;4.93;;;;;;;4.91;45.43;99521.47;5133682;27;41634;-73
2022/03/14 05:41:40;;;;;;;10.03;5.37;;;;;;;4.97;45.38;99534.41;5152728;27;39969;-72
2022/03/14 05:44:08;;;;;;;9.20;5.50;;;;;;;4.99;45.33;99543.09;5167317;27;41671;-75
2022/03/14 05:46:37;;;;;;;7.83;5.13;;;;;;;5.00;46.10;99546.56;5133630;27;42585;-74
2022/03/14 05:49:05;;;;;;;10.73;5.53;;;;;;;5.00;46.93;99541.34;5152333;27;42231;-75
2022/03/14 05:51:34;;;;;;;8.47;6.27;;;;;;;4.99;47.72;99537.84;5133779;27;39866;-73
2022/03/14 05:54:01;;;;;;;6.50;5.30;;;;;;;5.01;48.08;99545.69;5170505;27;41734;-74
2022/03/14 05:56:29;;;;;;;9.40;6.10;;;;;;;5.03;47.66;99557.84;5173453;27;42436;-72
2022/03/14 05:58:58;;;;;;;10.43;6.13;;;;;;;4.94;47.96;99537.13;5157251;27;42285;-74
2022/03/14 06:01:26;;;;;;;7.57;5.23;;;;;;;5.05;48.60;99549.94;5132346;27;39932;-73
2022/03/14 06:03:55;;;;;;;7.70;5.20;;;;;;;5.05;48.85;99555.19;5151538;27;41472;-74
2022/03/14 06:06:22;;;;;;;8.73;5.27;;;;;;;5.05;49.94;99550.81;5133445;27;44592;-74
2022/03/14 06:08:50;;;;;;;7.50;4.97;;;;;;;5.02;50.87;99550.03;5152002;27;42891;-74
2022/03/14 06:11:20;;;;;;;8.53;5.50;;;;;;;4.97;50.87;99544.91;5152416;27;40684;-72
2022/03/14 06:13:48;;;;;;;9.70;5.73;;;;;;;5.02;51.03;99568.41;5151994;27;41430;-72
2022/03/14 06:16:16;;;;;;;11.63;6.77;;;;;;;4.99;51.63;99566.72;5133469;27;45168;-72
2022/03/14 06:18:45;;;;;;;10.30;6.37;;;;;;;4.97;52.15;99567.66;5133065;27;42693;-74
2022/03/14 06:21:15;;;;;;;9.80;6.93;;;;;;;4.94;52.46;99563.38;5132869;27;39914;-73
2022/03/14 06:23:43;;;;;;;12.33;6.63;;;;;;;4.94;52.37;99570.41;5150906;27;42498;-75
2022/03/14 06:26:10;;;;;;;8.27;5.50;;;;;;;4.96;52.66;99571.19;5157804;27;43631;-72
2022/03/14 06:28:38;;;;;;;10.20;6.63;;;;;;;4.99;52.78;99571.97;5151871;27;43262;-72
2022/03/14 06:31:05;;;;;;;9.40;5.87;;;;;;;5.00;53.65;99563.19;5152096;27;39740;-74
2022/03/14 06:33:33;;;;;;;9.00;6.30;;;;;;;5.05;54.27;99576.19;5131324;27;42961;-73
2022/03/14 06:36:01;;;;;;;9.13;5.67;;;;;;;5.05;55.10;99570.94;5131402;27;43767;-74
2022/03/14 06:38:31;;;;;;;10.77;6.63;;;;;;;5.09;55.40;99579.56;5130949;27;42335;-72
2022/03/14 06:41:01;;;;;;;9.63;6.70;;;;;;;5.14;54.78;99588.19;5129941;27;40210;-72
2022/03/14 06:43:29;;;;;;;10.63;6.67;;;;;;;5.19;55.52;99592.41;5112733;27;42722;-76
2022/03/14 06:45:57;;;;;;;9.27;5.80;;;;;;;5.20;55.61;99586.22;5130835;27;43026;-74
2022/03/14 06:48:24;;;;;;;9.00;5.83;;;;;;;5.28;56.70;99599.16;5115515;27;41908;-72
2022/03/14 06:50:52;;;;;;;8.43;6.00;;;;;;;5.30;56.63;99602.59;5155691;27;41840;-71
2022/03/14 06:53:20;;;;;;;7.23;6.03;;;;;;;5.33;56.62;99597.22;5132772;27;42508;-74
2022/03/14 06:55:49;;;;;;;8.50;7.07;;;;;;;5.34;57.25;99607.69;5151787;27;43549;-73
2022/03/14 06:58:17;;;;;;;8.27;5.93;;;;;;;5.36;58.00;99605.91;5149265;27;43082;-75
2022/03/14 07:00:44;;;;;;;11.57;6.40;;;;;;;5.38;57.87;99606.72;5150339;27;40633;-76
2022/03/14 07:03:14;;;;;;;9.67;6.17;;;;;;;5.39;57.74;99616.31;5138220;27;40451;-75
2022/03/14 07:05:41;;;;;;;8.20;6.53;;;;;;;5.46;57.55;99624.00;5148836;27;42761;-75
2022/03/14 07:08:10;;;;;;;10.23;6.67;;;;;;;5.54;57.34;99629.91;5140287;27;42284;-76
2022/03/14 07:10:38;;;;;;;9.93;6.93;;;;;;;5.60;58.34;99632.34;5132414;27;40011;-77
2022/03/14 07:13:08;;;;;;;10.77;6.50;;;;;;;5.65;58.88;99635.69;5109818;27;40223;-75
2022/03/14 07:15:36;;;;;;;8.37;6.87;;;;;;;5.67;59.45;99637.38;5150605;27;43407;-75
2022/03/14 07:18:03;;;;;;;9.33;6.73;;;;;;;5.78;60.22;99652.81;5131775;27;43311;-76
2022/03/14 07:20:31;;;;;;;10.43;7.43;;;;;;;5.79;60.96;99659.81;5136730;27;40023;-75
2022/03/14 07:23:00;;;;;;;11.77;7.03;;;;;;;5.80;60.49;99663.28;5135719;27;41518;-80
2022/03/14 07:25:30;;;;;;;8.40;6.60;;;;;;;5.83;60.35;99674.56;5154338;27;43695;-77
2022/03/14 07:28:01;;;;;;;13.27;7.67;;;;;;;5.89;60.72;99678.81;5135676;27;42327;-78
2022/03/14 07:30:30;;;;;;;9.83;6.87;;;;;;;5.93;60.72;99681.31;5118817;27;41430;-76
2022/03/14 07:32:58;;;;;;;11.93;7.27;;;;;;;6.01;60.48;99679.31;5138918;27;43322;-75
2022/03/14 07:35:27;;;;;;;11.37;7.40;;;;;;;6.09;62.33;99674.66;5170552;27;41129;-76
2022/03/14 07:37:55;;;;;;;12.33;8.10;;;;;;;6.15;62.69;99683.28;5153539;27;42959;-77
2022/03/14 07:40:23;;;;;;;9.33;6.83;;;;;;;6.16;62.23;99696.38;5135919;27;40847;-78
2022/03/14 07:42:53;;;;;;;11.17;7.53;;;;;;;6.19;62.08;99709.41;5154276;27;42135;-79
2022/03/14 07:45:22;;;;;;;12.13;7.63;;;;;;;6.21;62.76;99702.34;5135655;27;43747;-75
2022/03/14 07:47:51;;;;;;;10.73;6.93;;;;;;;6.22;64.31;99713.72;5120146;27;41972;-74
2022/03/14 07:50:19;;;;;;;10.30;6.73;;;;;;;6.24;63.35;99725.06;5153223;27;40052;-76
2022/03/14 07:52:48;;;;;;;9.53;6.97;;;;;;;6.29;63.42;99723.16;5153167;27;42531;-84
2022/03/14 07:55:16;;;;;;;11.13;7.53;;;;;;;6.33;63.17;99723.00;5118140;27;44241;-79
2022/03/14 07:57:44;;;;;;;10.87;7.53;;;;;;;6.37;63.07;99727.25;5135486;27;43301;-76
2022/03/14 08:00:14;;;;;;;8.63;7.63;;;;;;;6.43;63.40;99734.94;5135984;27;40111;-78
2022/03/14 08:02:45;;;;;;;11.73;8.43;;;;;;;6.45;65.12;99724.38;5136693;27;41917;-82
2022/03/14 08:05:24;;;;;;;9.73;7.67;;;;;;;6.47;64.68;99735.72;5154433;27;41972;-80
2022/03/14 08:07:52;;;;;;;12.03;8.23;;;;;;;6.51;65.68;99728.59;5133242;27;41121;-81
2022/03/14 08:10:20;;;;;;;11.97;8.30;;;;;;;6.56;65.07;99739.81;5148489;27;38988;-80
2022/03/14 08:12:51;;;;;;;11.83;7.67;;;;;;;6.64;64.84;99743.94;5150769;27;40834;-78
2022/03/14 08:15:21;;;;;;;9.73;6.83;;;;;;;6.63;64.48;99731.69;5151647;27;42591;-74
2022/03/14 08:17:51;;;;;;;8.80;6.60;;;;;;;6.87;64.19;99755.47;5167097;27;42175;-80
2022/03/14 08:20:21;;;;;;;9.07;6.07;;;;;;;6.99;64.46;99752.44;5154156;27;39942;-77
2022/03/14 08:22:49;;;;;;;6.53;4.83;;;;;;;7.20;65.06;99767.50;5136210;27;42276;-76
2022/03/14 08:25:17;;;;;;;5.87;5.00;;;;;;;7.24;65.42;99752.47;5153810;27;42546;-76
2022/03/14 08:27:45;;;;;;;6.97;4.00;;;;;;;7.49;66.28;99769.13;5136338;27;42353;-76
2022/03/14 08:30:13;;;;;;;6.37;3.83;;;;;;;7.54;66.77;99746.97;5135262;27;39975;-78
2022/03/14 08:32:42;;;;;;;6.63;4.00;;;;;;;7.77;67.03;99779.56;5135667;27;39727;-81
2022/03/14 08:35:12;;;;;;;5.17;3.50;;;;;;;7.58;67.36;99732.75;5161551;27;42800;-75
2022/03/14 08:37:42;;;;;;;4.47;3.07;;;;;;;8.04;67.54;99783.78;5151794;27;43478;-80
2022/03/14 08:40:15;;;;;;;4.03;3.57;;;;;;;8.15;68.09;99791.34;5149629;27;40911;-77
2022/03/14 08:42:45;;;;;;;5.87;4.17;;;;;;;8.26;68.07;99790.00;5135217;27;40432;-77
2022/03/14 08:45:14;;;;;;;6.00;3.90;;;;;;;8.40;67.75;99802.72;5151287;27;41890;-77
2022/03/14 08:47:41;;;;;;;5.10;3.50;;;;;;;8.41;67.19;99771.88;5134586;27;42555;-79
2022/03/14 08:50:14;;;;;;;5.20;3.50;;;;;;;8.85;67.19;99800.03;5153611;27;42185;-78
2022/03/14 08:52:52;;;;;;;5.63;4.20;;;;;;;9.29;66.99;99810.53;5134948;27;41314;-79
2022/03/14 08:55:20;;;;;;;5.87;4.07;;;;;;;9.60;67.04;99818.91;5154502;27;44039;-79
2022/03/14 08:57:47;;;;;;;5.73;3.30;;;;;;;9.80;66.88;99812.72;5168759;27;42488;-76
2022/03/14 09:00:17;;;;;;;4.73;3.73;;;;;;;9.89;66.61;99822.06;5118081;27;39387;-76
2022/03/14 09:02:48;;;;;;;3.83;3.00;;;;;;;9.98;66.24;99832.22;5134893;27;41486;-80
2022/03/14 09:05:16;;;;;;;5.00;3.60;;;;;;;9.98;66.53;99832.22;5165102;27;42725;-81
2022/03/14 09:07:44;;;;;;;5.87;3.57;;;;;;;9.99;66.48;99840.09;5149737;27;41820;-82
2022/03/14 09:10:15;;;;;;;5.50;3.70;;;;;;;10.01;67.63;99832.09;5149719;27;39797;-83
2022/03/14 09:12:43;;;;;;;5.40;3.53;;;;;;;10.07;67.69;99832.69;5134197;27;41893;-81
2022/03/14 09:15:11;;;;;;;7.30;3.80;;;;;;;10.19;68.70;99831.28;5153767;27;42948;-77
2022/03/14 09:17:47;;;;;;;5.00;3.53;;;;;;;10.36;69.19;99833.19;5134075;27;44655;-80
2022/03/14 09:20:15;;;;;;;3.87;2.80;;;;;;;10.36;68.73;99834.03;5117279;27;41843;-80
2022/03/14 09:22:45;;;;;;;3.70;3.13;;;;;;;10.42;69.17;99838.19;5134817;27;42479;-84
2022/03/14 09:25:15;;;;;;;4.43;2.83;;;;;;;10.53;69.06;99853.56;5134890;27;42607;-84
2022/03/14 09:27:44;;;;;;;3.67;3.27;;;;;;;10.54;69.31;99863.25;5145855;27;42283;-87
2022/03/14 09:30:13;;;;;;;3.20;2.90;;;;;;;10.54;69.20;99876.47;5152875;27;39972;-86
2022/03/14 09:32:42;;;;;;;3.33;2.80;;;;;;;10.49;68.87;99870.56;5149968;27;40446;-81
2022/03/14 09:35:11;;;;;;;4.07;2.77;;;;;;;10.45;69.21;99875.13;5153202;27;42801;-78
2022/03/14 09:37:41;;;;;;;2.67;2.40;;;;;;;10.42;69.21;99881.41;5151825;27;42400;-78
2022/03/14 09:40:11;;;;;;;3.03;2.23;;;;;;;10.43;69.34;99887.56;5134273;27;38885;-78
2022/03/14 09:42:42;;;;;;;4.20;2.37;;;;;;;10.38;70.44;99879.84;5114600;27;40732;-75
2022/03/14 09:45:13;;;;;;;3.63;2.73;;;;;;;10.40;70.58;99879.75;5134402;27;44510;-81
2022/03/14 09:47:43;;;;;;;2.30;1.70;;;;;;;10.38;70.94;99885.16;5120232;27;41472;-77
2022/03/14 09:50:14;;;;;;;3.13;2.20;;;;;;;10.45;71.10;99888.38;5173731;27;39923;-80
2022/03/14 09:52:43;;;;;;;4.53;2.40;;;;;;;10.57;70.71;99897.53;5132476;27;40707;-80
2022/03/14 09:55:12;;;;;;;2.67;2.13;;;;;;;10.76;70.86;99901.03;5134309;27;42870;-80
2022/03/14 09:57:42;;;;;;;3.20;1.77;;;;;;;11.02;70.23;99898.03;5133328;27;42066;-79
2022/03/14 10:00:13;;;;;;;2.23;2.00;;;;;;;11.22;69.77;99896.22;5134782;27;40068;-78
2022/03/14 10:02:44;;;;;;;1.87;1.67;;;;;;;11.47;69.08;99910.88;5151633;27;42152;-82
2022/03/14 10:05:13;;;;;;;2.33;2.10;;;;;;;11.57;68.82;99913.91;5137311;27;42820;-82
2022/03/14 10:07:43;;;;;;;2.83;2.00;;;;;;;11.69;68.54;99910.66;5149504;27;42690;-79
2022/03/14 10:10:14;;;;;;;4.17;2.37;;;;;;;11.77;68.07;99921.75;5130641;27;41355;-79
2022/03/14 10:12:45;;;;;;;3.30;1.73;;;;;;;11.79;68.53;99919.91;5133452;27;41805;-75
2022/03/14 10:15:15;;;;;;;1.87;1.67;;;;;;;11.77;68.23;99927.06;5129417;27;43714;-77
2022/03/14 10:17:44;;;;;;;2.40;1.70;;;;;;;11.72;67.85;99909.66;5131674;27;42331;-75
2022/03/14 10:20:15;;;;;;;4.10;2.20;;;;;;;11.46;68.37;99882.63;5138581;27;40032;-74
2022/03/14 10:22:44;;;;;;;1.87;1.53;;;;;;;11.59;68.33;99935.94;5158688;27;42194;-74
2022/03/14 10:25:13;;;;;;;3.37;1.50;;;;;;;11.45;68.26;99941.06;5142124;27;43630;-74
2022/03/14 10:27:45;;;;;;;2.80;1.63;;;;;;;11.24;68.60;99937.66;5140439;27;43612;-74
2022/03/14 10:30:29;;;;;;;2.87;1.87;;;;;;;11.05;69.38;99940.31;5141813;27;40136;-74
2022/03/14 10:33:10;;;;;;;3.30;1.90;;;;;;;10.85;69.65;99921.84;5159944;27;42632;-79
2022/03/14 10:35:45;;;;;;;2.73;1.87;;;;;;;10.83;69.94;99933.44;5139721;27;42271;-80
2022/03/14 10:38:16;;;;;;;2.40;1.80;;;;;;;10.67;70.63;99933.28;5128190;27;41006;-76
2022/03/14 10:40:45;;;;;;;2.33;1.43;;;;;;;10.61;70.33;99942.38;5145768;27;39016;-78
2022/03/14 10:43:24;;;;;;;2.30;1.23;;;;;;;10.55;70.63;99942.63;5144887;27;41526;-75
2022/03/14 10:45:53;;;;;;;2.23;1.43;;;;;;;10.57;70.77;99948.72;5148643;27;42926;-74
2022/03/14 10:48:34;;;;;;;3.03;1.73;;;;;;;10.57;70.88;99945.22;5151103;27;42984;-76
2022/03/14 10:51:06;;;;;;;2.90;1.87;;;;;;;10.59;70.58;99940.72;5136922;27;39194;-80
2022/03/14 10:53:35;;;;;;;2.93;1.57;;;;;;;10.67;70.07;99959.75;5154439;27;41799;-76
2022/03/14 10:56:04;;;;;;;3.10;2.13;;;;;;;10.73;70.16;99952.41;5155571;27;42784;-75
2022/03/14 10:58:34;;;;;;;4.90;1.67;;;;;;;11.00;69.92;99966.16;5144269;27;41185;-79
2022/03/14 11:01:04;;;;;;;2.37;1.50;;;;;;;11.26;69.05;99962.28;5116174;27;42296;-78
2022/03/14 11:03:34;;;;;;;2.10;1.40;;;;;;;11.53;68.36;99968.06;5116424;27;41508;-77
2022/03/14 11:06:04;;;;;;;1.50;1.40;;;;;;;11.80;68.14;99971.19;5133530;27;44017;-80
2022/03/14 11:08:35;;;;;;;1.43;1.33;;;;;;;12.10;67.09;99974.09;5118243;27;43127;-80
2022/03/14 11:11:04;;;;;;;2.27;1.60;;;;;;;12.39;66.18;99981.41;5119233;27;40275;-71
2022/03/14 11:13:38;;;;;;;1.57;1.40;;;;;;;12.82;65.36;99976.50;5155597;27;42080;-76
2022/03/14 11:16:07;;;;;;;1.87;1.37;;;;;;;13.29;64.26;99979.25;5165553;27;42809;-77
2022/03/14 11:18:37;;;;;;;4.10;1.30;;;;;;;14.00;63.15;99985.78;5152045;27;41890;-78
2022/03/14 11:21:06;;;;;;;2.97;2.17;;;;;;;14.65;61.69;99985.47;5168858;27;39658;-79
2022/03/14 11:23:36;;;;;;;1.47;1.37;;;;;;;15.06;60.21;99996.25;5126896;27;40858;-77
2022/03/14 11:26:03;;;;;;;1.80;1.70;;;;;;;15.24;58.08;99989.75;5119290;27;44235;-79
2022/03/14 11:28:36;;;;;;;3.10;1.40;;;;;;;15.49;57.02;99996.19;5135244;27;42388;-77
2022/03/14 11:31:03;;;;;;;1.93;1.40;;;;;;;15.62;57.20;99992.66;5135888;27;41482;-75
2022/03/14 11:33:35;;;;;;;2.57;1.80;;;;;;;15.52;55.57;100004.00;5154271;27;42749;-74
2022/03/14 11:36:03;;;;;;;1.93;1.30;;;;;;;15.31;55.66;100007.09;5118903;27;43333;-79
2022/03/14 11:38:31;;;;;;;2.17;1.43;;;;;;;15.05;54.51;100016.75;5138554;27;42695;-79
2022/03/14 11:40:59;;;;;;;3.20;1.23;;;;;;;15.01;55.25;99998.34;5154935;27;39781;-75
2022/03/14 11:43:27;;;;;;;2.30;1.33;;;;;;;15.10;55.17;100025.31;5143101;27;40784;-80
2022/03/14 11:46:00;;;;;;;1.70;1.10;;;;;;;15.10;55.35;100029.78;5135837;27;43759;-76
2022/03/14 11:48:31;;;;;;;1.67;1.13;;;;;;;15.07;55.60;100016.66;5134260;27;43136;-77